Terminal Aerodrome Forecast
Issued by NWS North Platte, NE

Home | Current Version | Previous Version | Text Only | Print | Product List | Glossary Off
Versions: 1 2 3 4 5 6 7 8 9 10 11 12 13 14 15

000
FTUS43 KLBF 302324
TAFVTN
TAF
KVTN 302324Z 0100/0124 01016G24KT P6SM -RA OVC010
     FM010800 01011KT 4SM BR VCSH OVC007
     FM011400 35010KT P6SM OVC015
     FM011800 36011G19KT P6SM BKN050
     FM012200 01012KT P6SM SCT050 SCT250=

USA.gov is the U.S. government's official web portal to all federal, state and local government web resources and services.